sensor_id;sensor_type;location;lat;lon;timestamp;pressure;altitude;pressure_sealevel;temperature;humidity
5966;BME280;3009;43.224;27.976;2023-02-19T00:01:52;100370.78;;;10.87;62.58
5966;BME280;3009;43.224;27.976;2023-02-19T00:04:21;100365.06;;;10.80;62.73
5966;BME280;3009;43.224;27.976;2023-02-19T00:06:49;100371.41;;;10.84;62.92
5966;BME280;3009;43.224;27.976;2023-02-19T00:09:18;100365.06;;;10.80;62.89
5966;BME280;3009;43.224;27.976;2023-02-19T00:11:47;100362.69;;;10.78;62.81
5966;BME280;3009;43.224;27.976;2023-02-19T00:14:17;100354.91;;;10.68;62.89
5966;BME280;3009;43.224;27.976;2023-02-19T00:16:46;100355.38;;;10.61;63.21
5966;BME280;3009;43.224;27.976;2023-02-19T00:19:18;100349.19;;;10.61;63.14
5966;BME280;3009;43.224;27.976;2023-02-19T00:21:46;100347.44;;;10.56;63.33
5966;BME280;3009;43.224;27.976;2023-02-19T00:24:15;100345.31;;;10.44;63.89
5966;BME280;3009;43.224;27.976;2023-02-19T00:26:44;100347.38;;;10.39;63.95
5966;BME280;3009;43.224;27.976;2023-02-19T00:29:15;100356.59;;;10.33;64.25
5966;BME280;3009;43.224;27.976;2023-02-19T00:31:43;100346.47;;;10.29;64.17
5966;BME280;3009;43.224;27.976;2023-02-19T00:34:12;100346.13;;;10.22;64.60
5966;BME280;3009;43.224;27.976;2023-02-19T00:36:42;100343.38;;;10.14;64.95
5966;BME280;3009;43.224;27.976;2023-02-19T00:39:12;100331.69;;;10.09;64.86
5966;BME280;3009;43.224;27.976;2023-02-19T00:41:41;100326.78;;;10.03;65.03
5966;BME280;3009;43.224;27.976;2023-02-19T00:44:10;100320.28;;;9.95;65.16
5966;BME280;3009;43.224;27.976;2023-02-19T00:46:41;100321.50;;;9.89;65.77
5966;BME280;3009;43.224;27.976;2023-02-19T00:49:14;100319.47;;;9.94;65.18
5966;BME280;3009;43.224;27.976;2023-02-19T00:51:45;100314.72;;;9.91;64.89
5966;BME280;3009;43.224;27.976;2023-02-19T00:54:14;100292.69;;;9.94;64.64
5966;BME280;3009;43.224;27.976;2023-02-19T00:56:42;100297.97;;;10.08;63.88
5966;BME280;3009;43.224;27.976;2023-02-19T00:59:12;100285.22;;;10.14;63.49
5966;BME280;3009;43.224;27.976;2023-02-19T01:01:40;100283.22;;;10.20;63.05
5966;BME280;3009;43.224;27.976;2023-02-19T01:04:10;100274.88;;;10.21;62.83
5966;BME280;3009;43.224;27.976;2023-02-19T01:06:38;100278.63;;;10.20;62.90
5966;BME280;3009;43.224;27.976;2023-02-19T01:09:08;100275.84;;;10.25;62.51
5966;BME280;3009;43.224;27.976;2023-02-19T01:11:36;100271.66;;;10.33;62.00
5966;BME280;3009;43.224;27.976;2023-02-19T01:14:04;100268.81;;;10.38;61.73
5966;BME280;3009;43.224;27.976;2023-02-19T01:16:33;100266.97;;;10.48;61.42
5966;BME280;3009;43.224;27.976;2023-02-19T01:19:01;100257.41;;;10.55;61.14
5966;BME280;3009;43.224;27.976;2023-02-19T01:21:30;100261.97;;;10.55;60.92
5966;BME280;3009;43.224;27.976;2023-02-19T01:23:58;100258.81;;;10.53;61.03
5966;BME280;3009;43.224;27.976;2023-02-19T01:26:29;100261.59;;;10.48;61.33
5966;BME280;3009;43.224;27.976;2023-02-19T01:28:58;100247.41;;;10.47;61.45
5966;BME280;3009;43.224;27.976;2023-02-19T01:31:27;100243.97;;;10.46;61.39
5966;BME280;3009;43.224;27.976;2023-02-19T01:33:58;100233.06;;;10.43;61.44
5966;BME280;3009;43.224;27.976;2023-02-19T01:36:27;100240.47;;;10.37;61.56
5966;BME280;3009;43.224;27.976;2023-02-19T01:38:55;100239.06;;;10.49;61.33
5966;BME280;3009;43.224;27.976;2023-02-19T01:41:24;100236.84;;;10.51;61.21
5966;BME280;3009;43.224;27.976;2023-02-19T01:43:57;100228.66;;;10.47;61.26
5966;BME280;3009;43.224;27.976;2023-02-19T01:46:27;100224.38;;;10.46;61.28
5966;BME280;3009;43.224;27.976;2023-02-19T01:48:58;100230.72;;;10.50;61.03
5966;BME280;3009;43.224;27.976;2023-02-19T01:51:29;100223.78;;;10.49;61.29
5966;BME280;3009;43.224;27.976;2023-02-19T01:54:01;100216.25;;;10.60;60.97
5966;BME280;3009;43.224;27.976;2023-02-19T01:56:33;100213.41;;;10.65;60.86
5966;BME280;3009;43.224;27.976;2023-02-19T01:59:06;100218.00;;;10.64;60.82
5966;BME280;3009;43.224;27.976;2023-02-19T02:01:36;100223.81;;;10.58;60.88
5966;BME280;3009;43.224;27.976;2023-02-19T02:04:06;100209.94;;;10.56;61.15
5966;BME280;3009;43.224;27.976;2023-02-19T02:06:42;100209.94;;;10.56;61.24
5966;BME280;3009;43.224;27.976;2023-02-19T02:09:13;100205.50;;;10.51;61.40
5966;BME280;3009;43.224;27.976;2023-02-19T02:11:59;100214.47;;;10.46;61.41
5966;BME280;3009;43.224;27.976;2023-02-19T02:14:32;100208.31;;;10.46;61.61
5966;BME280;3009;43.224;27.976;2023-02-19T02:17:09;100207.88;;;10.53;61.21
5966;BME280;3009;43.224;27.976;2023-02-19T02:19:59;100216.53;;;10.50;61.40
5966;BME280;3009;43.224;27.976;2023-02-19T02:22:32;100217.63;;;10.49;61.50
5966;BME280;3009;43.224;27.976;2023-02-19T02:25:15;100205.19;;;10.53;61.47
5966;BME280;3009;43.224;27.976;2023-02-19T02:27:55;100214.03;;;10.62;61.08
5966;BME280;3009;43.224;27.976;2023-02-19T02:30:38;100216.06;;;10.56;61.19
5966;BME280;3009;43.224;27.976;2023-02-19T02:33:18;100209.91;;;10.47;61.49
5966;BME280;3009;43.224;27.976;2023-02-19T02:35:52;100200.25;;;10.46;61.71
5966;BME280;3009;43.224;27.976;2023-02-19T02:38:24;100205.31;;;10.48;61.43
5966;BME280;3009;43.224;27.976;2023-02-19T02:40:55;100213.97;;;10.44;61.67
5966;BME280;3009;43.224;27.976;2023-02-19T02:43:24;100209.75;;;10.43;61.48
5966;BME280;3009;43.224;27.976;2023-02-19T02:45:53;100210.84;;;10.42;61.74
5966;BME280;3009;43.224;27.976;2023-02-19T02:48:29;100215.41;;;10.42;61.55
5966;BME280;3009;43.224;27.976;2023-02-19T02:51:04;100208.31;;;10.46;61.30
5966;BME280;3009;43.224;27.976;2023-02-19T02:53:37;100211.00;;;10.46;61.47
5966;BME280;3009;43.224;27.976;2023-02-19T02:56:26;100216.66;;;10.44;61.31
5966;BME280;3009;43.224;27.976;2023-02-19T02:58:55;100216.97;;;10.43;61.11
5966;BME280;3009;43.224;27.976;2023-02-19T03:01:29;100219.03;;;10.37;61.52
5966;BME280;3009;43.224;27.976;2023-02-19T03:04:22;100224.47;;;10.32;61.43
5966;BME280;3009;43.224;27.976;2023-02-19T03:06:51;100219.72;;;10.29;61.55
5966;BME280;3009;43.224;27.976;2023-02-19T03:09:25;100221.00;;;10.32;61.54
5966;BME280;3009;43.224;27.976;2023-02-19T03:11:58;100225.88;;;10.29;61.50
5966;BME280;3009;43.224;27.976;2023-02-19T03:14:47;100219.25;;;10.27;61.63
5966;BME280;3009;43.224;27.976;2023-02-19T03:17:38;100221.56;;;10.42;61.10
5966;BME280;3009;43.224;27.976;2023-02-19T03:20:27;100216.66;;;10.44;60.74
5966;BME280;3009;43.224;27.976;2023-02-19T03:22:58;100208.78;;;10.39;60.78
5966;BME280;3009;43.224;27.976;2023-02-19T03:25:30;100209.88;;;10.38;60.86
5966;BME280;3009;43.224;27.976;2023-02-19T03:28:18;100216.09;;;10.25;61.35
5966;BME280;3009;43.224;27.976;2023-02-19T03:31:11;100220.94;;;10.14;61.69
5966;BME280;3009;43.224;27.976;2023-02-19T03:33:43;100214.00;;;10.13;61.95
5966;BME280;3009;43.224;27.976;2023-02-19T03:36:13;100218.50;;;10.04;62.24
5966;BME280;3009;43.224;27.976;2023-02-19T03:38:47;100229.38;;;9.99;62.55
5966;BME280;3009;43.224;27.976;2023-02-19T03:41:24;100228.59;;;9.98;62.30
5966;BME280;3009;43.224;27.976;2023-02-19T03:43:59;100212.53;;;9.98;62.28
5966;BME280;3009;43.224;27.976;2023-02-19T03:46:35;100217.56;;;10.00;62.18
5966;BME280;3009;43.224;27.976;2023-02-19T03:49:14;100227.16;;;10.01;62.21
5966;BME280;3009;43.224;27.976;2023-02-19T03:51:52;100221.16;;;9.95;62.00
5966;BME280;3009;43.224;27.976;2023-02-19T03:54:26;100223.34;;;9.93;62.08
5966;BME280;3009;43.224;27.976;2023-02-19T03:57:01;100228.22;;;9.91;62.17
5966;BME280;3009;43.224;27.976;2023-02-19T03:59:37;100230.69;;;9.79;62.42
5966;BME280;3009;43.224;27.976;2023-02-19T04:02:11;100236.41;;;9.86;61.69
5966;BME280;3009;43.224;27.976;2023-02-19T04:04:44;100244.53;;;10.03;60.98
5966;BME280;3009;43.224;27.976;2023-02-19T04:07:14;100246.09;;;10.04;60.33
5966;BME280;3009;43.224;27.976;2023-02-19T04:09:44;100263.03;;;10.14;59.56
5966;BME280;3009;43.224;27.976;2023-02-19T04:12:14;100271.56;;;10.24;58.49
5966;BME280;3009;43.224;27.976;2023-02-19T04:14:48;100266.28;;;10.33;57.98
5966;BME280;3009;43.224;27.976;2023-02-19T04:17:21;100270.47;;;10.48;56.87
5966;BME280;3009;43.224;27.976;2023-02-19T04:19:53;100261.03;;;10.59;55.84
5966;BME280;3009;43.224;27.976;2023-02-19T04:22:23;100259.47;;;10.67;55.53
5966;BME280;3009;43.224;27.976;2023-02-19T04:24:53;100271.97;;;10.80;55.00
5966;BME280;3009;43.224;27.976;2023-02-19T04:27:22;100265.50;;;10.81;54.66
5966;BME280;3009;43.224;27.976;2023-02-19T04:29:50;100257.78;;;10.80;54.59
5966;BME280;3009;43.224;27.976;2023-02-19T04:32:18;100257.59;;;10.76;54.74
5966;BME280;3009;43.224;27.976;2023-02-19T04:34:46;100244.81;;;10.73;54.72
5966;BME280;3009;43.224;27.976;2023-02-19T04:37:16;100233.16;;;10.69;54.83
5966;BME280;3009;43.224;27.976;2023-02-19T04:39:44;100235.97;;;10.73;54.43
5966;BME280;3009;43.224;27.976;2023-02-19T04:42:12;100242.97;;;10.82;54.24
5966;BME280;3009;43.224;27.976;2023-02-19T04:44:41;100256.50;;;10.77;53.97
5966;BME280;3009;43.224;27.976;2023-02-19T04:47:09;100257.94;;;10.84;53.84
5966;BME280;3009;43.224;27.976;2023-02-19T04:49:37;100255.41;;;10.78;53.81
5966;BME280;3009;43.224;27.976;2023-02-19T04:52:05;100259.81;;;10.74;53.80
5966;BME280;3009;43.224;27.976;2023-02-19T04:54:35;100264.56;;;10.77;53.69
5966;BME280;3009;43.224;27.976;2023-02-19T04:57:03;100267.69;;;10.71;53.80
5966;BME280;3009;43.224;27.976;2023-02-19T04:59:31;100279.97;;;10.63;53.77
5966;BME280;3009;43.224;27.976;2023-02-19T05:02:00;100283.28;;;10.69;53.46
5966;BME280;3009;43.224;27.976;2023-02-19T05:04:28;100296.25;;;10.75;53.39
5966;BME280;3009;43.224;27.976;2023-02-19T05:06:56;100291.72;;;10.85;52.74
5966;BME280;3009;43.224;27.976;2023-02-19T05:09:24;100294.25;;;10.90;52.45
5966;BME280;3009;43.224;27.976;2023-02-19T05:11:54;100295.34;;;10.97;52.16
5966;BME280;3009;43.224;27.976;2023-02-19T05:14:22;100297.72;;;10.99;51.98
5966;BME280;3009;43.224;27.976;2023-02-19T05:16:50;100307.41;;;11.09;51.67
5966;BME280;3009;43.224;27.976;2023-02-19T05:19:18;100311.97;;;11.08;51.64
5966;BME280;3009;43.224;27.976;2023-02-19T05:21:46;100319.53;;;11.06;51.54
5966;BME280;3009;43.224;27.976;2023-02-19T05:24:14;100320.03;;;11.17;51.24
5966;BME280;3009;43.224;27.976;2023-02-19T05:26:43;100334.59;;;11.25;50.81
5966;BME280;3009;43.224;27.976;2023-02-19T05:29:12;100347.69;;;11.26;50.55
5966;BME280;3009;43.224;27.976;2023-02-19T05:31:40;100350.38;;;11.35;50.23
5966;BME280;3009;43.224;27.976;2023-02-19T05:34:09;100363.50;;;11.45;49.90
5966;BME280;3009;43.224;27.976;2023-02-19T05:36:38;100378.22;;;11.74;49.23
5966;BME280;3009;43.224;27.976;2023-02-19T05:39:06;100383.78;;;11.95;48.44
5966;BME280;3009;43.224;27.976;2023-02-19T05:41:35;100384.88;;;12.20;48.13
5966;BME280;3009;43.224;27.976;2023-02-19T05:44:03;100385.13;;;12.45;47.24
5966;BME280;3009;43.224;27.976;2023-02-19T05:46:33;100387.94;;;12.57;46.81
5966;BME280;3009;43.224;27.976;2023-02-19T05:49:01;100384.78;;;12.64;46.69
5966;BME280;3009;43.224;27.976;2023-02-19T05:51:29;100393.03;;;12.98;46.21
5966;BME280;3009;43.224;27.976;2023-02-19T05:53:58;100401.06;;;12.68;46.90
5966;BME280;3009;43.224;27.976;2023-02-19T05:56:30;100393.50;;;12.61;46.88
5966;BME280;3009;43.224;27.976;2023-02-19T05:58:59;100398.88;;;12.52;47.36
5966;BME280;3009;43.224;27.976;2023-02-19T06:01:29;100418.47;;;12.62;47.25
5966;BME280;3009;43.224;27.976;2023-02-19T06:03:59;100415.56;;;12.84;46.65
5966;BME280;3009;43.224;27.976;2023-02-19T06:06:27;100408.81;;;12.69;47.23
5966;BME280;3009;43.224;27.976;2023-02-19T06:08:56;100421.44;;;12.86;46.76
5966;BME280;3009;43.224;27.976;2023-02-19T06:11:24;100412.81;;;13.02;46.29
5966;BME280;3009;43.224;27.976;2023-02-19T06:13:55;100417.59;;;12.87;46.59
5966;BME280;3009;43.224;27.976;2023-02-19T06:16:23;100412.13;;;12.75;47.00
5966;BME280;3009;43.224;27.976;2023-02-19T06:18:51;100417.16;;;12.85;46.90
5966;BME280;3009;43.224;27.976;2023-02-19T06:21:21;100426.28;;;13.02;46.37
5966;BME280;3009;43.224;27.976;2023-02-19T06:23:49;100433.16;;;13.20;45.90
5966;BME280;3009;43.224;27.976;2023-02-19T06:26:20;100432.63;;;13.36;45.81
5966;BME280;3009;43.224;27.976;2023-02-19T06:28:49;100426.13;;;13.37;45.57
5966;BME280;3009;43.224;27.976;2023-02-19T06:31:19;100417.94;;;13.24;45.94
5966;BME280;3009;43.224;27.976;2023-02-19T06:33:48;100409.91;;;13.16;46.39
5966;BME280;3009;43.224;27.976;2023-02-19T06:36:18;100412.97;;;12.97;46.75
5966;BME280;3009;43.224;27.976;2023-02-19T06:38:48;100409.84;;;12.94;46.76
5966;BME280;3009;43.224;27.976;2023-02-19T06:41:17;100405.09;;;12.91;47.17
5966;BME280;3009;43.224;27.976;2023-02-19T06:43:45;100414.13;;;12.87;47.37
5966;BME280;3009;43.224;27.976;2023-02-19T06:46:13;100432.66;;;12.88;47.34
5966;BME280;3009;43.224;27.976;2023-02-19T06:48:44;100440.75;;;12.80;47.62
5966;BME280;3009;43.224;27.976;2023-02-19T06:51:15;100443.88;;;12.90;47.75
5966;BME280;3009;43.224;27.976;2023-02-19T06:53:44;100449.56;;;12.98;47.47
5966;BME280;3009;43.224;27.976;2023-02-19T06:56:23;100456.22;;;12.91;47.86
5966;BME280;3009;43.224;27.976;2023-02-19T06:58:52;100447.38;;;12.91;47.85
5966;BME280;3009;43.224;27.976;2023-02-19T07:01:20;100436.75;;;12.94;47.92
5966;BME280;3009;43.224;27.976;2023-02-19T07:03:48;100429.94;;;12.97;47.98
5966;BME280;3009;43.224;27.976;2023-02-19T07:06:18;100434.50;;;12.97;48.01
5966;BME280;3009;43.224;27.976;2023-02-19T07:08:47;100439.91;;;12.97;48.08
5966;BME280;3009;43.224;27.976;2023-02-19T07:11:15;100441.03;;;12.96;48.42
5966;BME280;3009;43.224;27.976;2023-02-19T07:13:46;100440.69;;;13.06;48.14
5966;BME280;3009;43.224;27.976;2023-02-19T07:16:14;100447.31;;;13.00;48.41
5966;BME280;3009;43.224;27.976;2023-02-19T07:18:43;100448.75;;;13.06;48.56
5966;BME280;3009;43.224;27.976;2023-02-19T07:21:13;100457.09;;;13.13;48.14
5966;BME280;3009;43.224;27.976;2023-02-19T07:23:42;100457.28;;;13.08;48.43
5966;BME280;3009;43.224;27.976;2023-02-19T07:26:12;100465.00;;;13.18;48.22
5966;BME280;3009;43.224;27.976;2023-02-19T07:28:42;100462.44;;;13.22;48.19
5966;BME280;3009;43.224;27.976;2023-02-19T07:31:12;100473.66;;;13.33;48.30
5966;BME280;3009;43.224;27.976;2023-02-19T07:33:41;100476.97;;;13.38;47.59
5966;BME280;3009;43.224;27.976;2023-02-19T07:36:10;100477.41;;;13.49;47.78
5966;BME280;3009;43.224;27.976;2023-02-19T07:38:39;100460.34;;;13.66;47.21
5966;BME280;3009;43.224;27.976;2023-02-19T07:41:07;100490.19;;;13.61;47.19
5966;BME280;3009;43.224;27.976;2023-02-19T07:43:37;100489.47;;;13.73;46.68
5966;BME280;3009;43.224;27.976;2023-02-19T07:46:06;100499.88;;;13.83;46.79
5966;BME280;3009;43.224;27.976;2023-02-19T07:48:37;100480.63;;;13.93;46.40
5966;BME280;3009;43.224;27.976;2023-02-19T07:51:08;100482.94;;;14.04;46.21
5966;BME280;3009;43.224;27.976;2023-02-19T07:53:38;100490.13;;;13.99;46.30
5966;BME280;3009;43.224;27.976;2023-02-19T07:56:06;100480.50;;;14.11;45.67
5966;BME280;3009;43.224;27.976;2023-02-19T07:58:35;100476.81;;;14.15;45.40
5966;BME280;3009;43.224;27.976;2023-02-19T08:01:07;100468.00;;;14.27;45.02
5966;BME280;3009;43.224;27.976;2023-02-19T08:03:38;100459.59;;;14.29;45.48
5966;BME280;3009;43.224;27.976;2023-02-19T08:06:05;100459.97;;;14.40;45.14
5966;BME280;3009;43.224;27.976;2023-02-19T08:08:34;100459.56;;;14.50;45.28
5966;BME280;3009;43.224;27.976;2023-02-19T08:11:03;100449.25;;;14.64;44.92
5966;BME280;3009;43.224;27.976;2023-02-19T08:13:49;100440.19;;;14.69;44.38
5966;BME280;3009;43.224;27.976;2023-02-19T08:16:19;100440.41;;;14.76;44.62
5966;BME280;3009;43.224;27.976;2023-02-19T08:19:04;100441.66;;;14.66;44.68
5966;BME280;3009;43.224;27.976;2023-02-19T08:21:32;100445.47;;;14.78;44.51
5966;BME280;3009;43.224;27.976;2023-02-19T08:24:00;100430.19;;;14.82;44.45
5966;BME280;3009;43.224;27.976;2023-02-19T08:26:28;100431.00;;;14.95;44.14
5966;BME280;3009;43.224;27.976;2023-02-19T08:28:56;100439.13;;;14.95;43.93
5966;BME280;3009;43.224;27.976;2023-02-19T08:31:24;100439.22;;;14.86;44.50
5966;BME280;3009;43.224;27.976;2023-02-19T08:33:53;100430.09;;;14.91;44.20
5966;BME280;3009;43.224;27.976;2023-02-19T08:36:22;100425.72;;;14.86;44.65
5966;BME280;3009;43.224;27.976;2023-02-19T08:38:50;100419.22;;;14.99;44.45
5966;BME280;3009;43.224;27.976;2023-02-19T08:41:19;100419.78;;;15.17;44.17
5966;BME280;3009;43.224;27.976;2023-02-19T08:43:47;100420.91;;;15.16;44.33
5966;BME280;3009;43.224;27.976;2023-02-19T08:46:15;100418.63;;;15.31;43.99
5966;BME280;3009;43.224;27.976;2023-02-19T08:48:43;100405.00;;;15.39;43.77
5966;BME280;3009;43.224;27.976;2023-02-19T08:51:11;100429.22;;;15.36;43.88
5966;BME280;3009;43.224;27.976;2023-02-19T08:53:41;100418.28;;;15.45;43.73
5966;BME280;3009;43.224;27.976;2023-02-19T08:56:11;100408.59;;;15.44;43.84
5966;BME280;3009;43.224;27.976;2023-02-19T08:58:39;100413.22;;;15.43;43.87
5966;BME280;3009;43.224;27.976;2023-02-19T09:01:08;100410.72;;;15.50;44.08
5966;BME280;3009;43.224;27.976;2023-02-19T09:03:38;100406.09;;;15.63;43.85
5966;BME280;3009;43.224;27.976;2023-02-19T09:06:06;100408.75;;;15.75;43.80
5966;BME280;3009;43.224;27.976;2023-02-19T09:08:35;100409.22;;;15.77;43.53
5966;BME280;3009;43.224;27.976;2023-02-19T09:11:04;100417.81;;;15.67;43.53
5966;BME280;3009;43.224;27.976;2023-02-19T09:13:34;100412.84;;;15.82;43.63
5966;BME280;3009;43.224;27.976;2023-02-19T09:16:03;100424.44;;;15.82;43.86
5966;BME280;3009;43.224;27.976;2023-02-19T09:18:31;100417.13;;;15.83;43.45
5966;BME280;3009;43.224;27.976;2023-02-19T09:21:00;100425.44;;;15.90;43.45
5966;BME280;3009;43.224;27.976;2023-02-19T09:23:28;100425.63;;;15.97;43.34
5966;BME280;3009;43.224;27.976;2023-02-19T09:25:57;100430.94;;;15.93;43.22
5966;BME280;3009;43.224;27.976;2023-02-19T09:28:27;100426.13;;;15.87;43.49
5966;BME280;3009;43.224;27.976;2023-02-19T09:30:55;100432.06;;;15.92;43.17
5966;BME280;3009;43.224;27.976;2023-02-19T09:33:23;100435.75;;;16.00;43.31
5966;BME280;3009;43.224;27.976;2023-02-19T09:35:51;100433.56;;;15.90;43.33
5966;BME280;3009;43.224;27.976;2023-02-19T09:38:20;100442.44;;;15.90;43.45
5966;BME280;3009;43.224;27.976;2023-02-19T09:40:48;100446.38;;;15.93;43.33
5966;BME280;3009;43.224;27.976;2023-02-19T09:43:18;100441.41;;;15.95;43.47
5966;BME280;3009;43.224;27.976;2023-02-19T09:45:49;100443.53;;;16.02;43.67
5966;BME280;3009;43.224;27.976;2023-02-19T09:48:26;100448.16;;;16.01;43.32
5966;BME280;3009;43.224;27.976;2023-02-19T09:50:55;100441.16;;;16.12;43.04
5966;BME280;3009;43.224;27.976;2023-02-19T09:53:27;100431.09;;;16.13;43.22
5966;BME280;3009;43.224;27.976;2023-02-19T09:55:56;100426.47;;;16.13;43.15
5966;BME280;3009;43.224;27.976;2023-02-19T09:58:29;100418.56;;;16.21;42.76
5966;BME280;3009;43.224;27.976;2023-02-19T10:01:02;100417.97;;;16.27;42.80
5966;BME280;3009;43.224;27.976;2023-02-19T10:03:35;100408.16;;;16.23;42.61
5966;BME280;3009;43.224;27.976;2023-02-19T10:06:12;100427.50;;;16.37;42.64
5966;BME280;3009;43.224;27.976;2023-02-19T10:08:44;100427.56;;;16.53;42.53
5966;BME280;3009;43.224;27.976;2023-02-19T10:11:13;100423.34;;;16.56;41.95
5966;BME280;3009;43.224;27.976;2023-02-19T10:13:44;100411.66;;;16.52;41.65
5966;BME280;3009;43.224;27.976;2023-02-19T10:16:18;100427.28;;;16.58;41.30
5966;BME280;3009;43.224;27.976;2023-02-19T10:18:47;100419.22;;;16.46;41.23
5966;BME280;3009;43.224;27.976;2023-02-19T10:21:17;100410.41;;;16.49;40.93
5966;BME280;3009;43.224;27.976;2023-02-19T10:23:48;100402.88;;;16.42;41.30
5966;BME280;3009;43.224;27.976;2023-02-19T10:26:18;100395.22;;;16.44;41.23
5966;BME280;3009;43.224;27.976;2023-02-19T10:28:46;100399.59;;;16.65;41.29
5966;BME280;3009;43.224;27.976;2023-02-19T10:31:18;100396.13;;;16.64;40.92
5966;BME280;3009;43.224;27.976;2023-02-19T10:33:48;100389.75;;;16.73;40.91
5966;BME280;3009;43.224;27.976;2023-02-19T10:36:24;100386.00;;;16.77;40.47
5966;BME280;3009;43.224;27.976;2023-02-19T10:38:55;100384.06;;;16.78;40.22
5966;BME280;3009;43.224;27.976;2023-02-19T10:41:25;100378.50;;;16.87;40.29
5966;BME280;3009;43.224;27.976;2023-02-19T10:43:56;100383.22;;;16.90;39.48
5966;BME280;3009;43.224;27.976;2023-02-19T10:46:30;100382.59;;;16.80;39.49
5966;BME280;3009;43.224;27.976;2023-02-19T10:49:01;100380.66;;;16.81;39.56
5966;BME280;3009;43.224;27.976;2023-02-19T10:51:33;100376.91;;;16.54;40.24
5966;BME280;3009;43.224;27.976;2023-02-19T10:54:04;100363.97;;;16.63;40.46
5966;BME280;3009;43.224;27.976;2023-02-19T10:56:33;100364.88;;;16.67;41.04
5966;BME280;3009;43.224;27.976;2023-02-19T10:59:17;100352.03;;;16.64;41.10
5966;BME280;3009;43.224;27.976;2023-02-19T11:01:57;100344.06;;;16.71;41.12
5966;BME280;3009;43.224;27.976;2023-02-19T11:04:27;100347.66;;;16.91;41.03
5966;BME280;3009;43.224;27.976;2023-02-19T11:07:07;100339.00;;;17.02;40.95
5966;BME280;3009;43.224;27.976;2023-02-19T11:09:37;100339.66;;;17.14;40.50
5966;BME280;3009;43.224;27.976;2023-02-19T11:12:06;100336.38;;;17.05;40.43
5966;BME280;3009;43.224;27.976;2023-02-19T11:14:36;100337.16;;;17.06;40.75
5966;BME280;3009;43.224;27.976;2023-02-19T11:17:05;100341.50;;;17.10;40.40
5966;BME280;3009;43.224;27.976;2023-02-19T11:19:36;100336.44;;;17.09;40.19
5966;BME280;3009;43.224;27.976;2023-02-19T11:22:18;100316.28;;;17.06;39.87
5966;BME280;3009;43.224;27.976;2023-02-19T11:24:48;100321.47;;;17.15;40.28
5966;BME280;3009;43.224;27.976;2023-02-19T11:27:22;100318.88;;;17.18;39.89
5966;BME280;3009;43.224;27.976;2023-02-19T11:29:51;100323.84;;;17.16;40.45
5966;BME280;3009;43.224;27.976;2023-02-19T11:32:26;100309.72;;;17.07;40.20
5966;BME280;3009;43.224;27.976;2023-02-19T11:35:17;100326.94;;;16.99;40.57
5966;BME280;3009;43.224;27.976;2023-02-19T11:37:55;100321.78;;;17.10;40.48
5966;BME280;3009;43.224;27.976;2023-02-19T11:40:33;100328.47;;;17.16;40.64
5966;BME280;3009;43.224;27.976;2023-02-19T11:43:08;100331.81;;;17.09;41.07
5966;BME280;3009;43.224;27.976;2023-02-19T11:45:46;100329.38;;;17.04;41.07
5966;BME280;3009;43.224;27.976;2023-02-19T11:51:49;100331.22;;;16.84;41.46
5966;BME280;3009;43.224;27.976;2023-02-19T11:54:31;100325.38;;;16.98;41.01
5966;BME280;3009;43.224;27.976;2023-02-19T11:57:13;100312.06;;;17.09;41.19
5966;BME280;3009;43.224;27.976;2023-02-19T11:59:47;100310.94;;;17.10;40.64
5966;BME280;3009;43.224;27.976;2023-02-19T12:02:44;100292.13;;;17.17;40.38
5966;BME280;3009;43.224;27.976;2023-02-19T12:05:44;100287.59;;;17.21;40.42
5966;BME280;3009;43.224;27.976;2023-02-19T12:08:37;100284.56;;;17.07;40.33
5966;BME280;3009;43.224;27.976;2023-02-19T12:11:16;100276.50;;;17.10;40.69
5966;BME280;3009;43.224;27.976;2023-02-19T12:14:15;100273.38;;;17.08;40.62
5966;BME280;3009;43.224;27.976;2023-02-19T12:16:53;100274.13;;;17.09;40.45
5966;BME280;3009;43.224;27.976;2023-02-19T12:19:38;100273.44;;;17.12;40.38
5966;BME280;3009;43.224;27.976;2023-02-19T12:22:26;100271.53;;;17.12;40.37
5966;BME280;3009;43.224;27.976;2023-02-19T12:25:29;100277.94;;;17.24;39.64
5966;BME280;3009;43.224;27.976;2023-02-19T12:28:27;100273.38;;;17.28;39.29
5966;BME280;3009;43.224;27.976;2023-02-19T12:31:13;100264.47;;;17.27;39.54
5966;BME280;3009;43.224;27.976;2023-02-19T12:34:23;100257.75;;;17.41;39.39
5966;BME280;3009;43.224;27.976;2023-02-19T12:37:06;100261.84;;;17.31;39.28
5966;BME280;3009;43.224;27.976;2023-02-19T12:39:43;100260.59;;;17.28;39.27
5966;BME280;3009;43.224;27.976;2023-02-19T12:42:23;100256.56;;;17.38;39.15
5966;BME280;3009;43.224;27.976;2023-02-19T12:44:57;100266.69;;;17.22;39.74
5966;BME280;3009;43.224;27.976;2023-02-19T12:47:31;100268.69;;;17.25;39.81
5966;BME280;3009;43.224;27.976;2023-02-19T12:50:13;100252.41;;;17.25;39.76
5966;BME280;3009;43.224;27.976;2023-02-19T12:52:46;100270.81;;;17.35;39.76
5966;BME280;3009;43.224;27.976;2023-02-19T12:55:21;100253.63;;;17.27;39.87
5966;BME280;3009;43.224;27.976;2023-02-19T12:57:52;100252.56;;;17.32;39.83
5966;BME280;3009;43.224;27.976;2023-02-19T13:00:28;100246.13;;;17.40;39.47
5966;BME280;3009;43.224;27.976;2023-02-19T13:03:00;100245.88;;;17.45;39.34
5966;BME280;3009;43.224;27.976;2023-02-19T13:05:39;100242.28;;;17.41;39.18
5966;BME280;3009;43.224;27.976;2023-02-19T13:08:15;100246.13;;;17.40;39.41
5966;BME280;3009;43.224;27.976;2023-02-19T13:10:50;100245.88;;;17.45;39.36
5966;BME280;3009;43.224;27.976;2023-02-19T13:13:23;100239.78;;;17.32;39.82
5966;BME280;3009;43.224;27.976;2023-02-19T13:15:56;100233.59;;;17.32;39.66
5966;BME280;3009;43.224;27.976;2023-02-19T13:18:30;100234.88;;;17.38;39.58
5966;BME280;3009;43.224;27.976;2023-02-19T13:21:00;100242.56;;;17.36;39.14
5966;BME280;3009;43.224;27.976;2023-02-19T13:23:30;100240.72;;;17.21;39.54
5966;BME280;3009;43.224;27.976;2023-02-19T13:26:49;100226.19;;;17.29;39.53
5966;BME280;3009;43.224;27.976;2023-02-19T13:29:30;100239.28;;;17.27;39.31
5966;BME280;3009;43.224;27.976;2023-02-19T13:32:36;100236.09;;;17.21;39.76